Time;durP1;ratioP1;P1;durP2;ratioP2;P2;SDS_P1;SDS_P2;PMS_P1;PMS_P2;Temp;Humidity;BMP_temperature;BMP_pressure;BME280_temperature;BME280_humidity;BME280_pressure;Samples;Min_cycle;Max_cycle;Signal;HPM_P1;HPM_P2
2023/12/02 00:02:17;;;;;;;1999.90;999.90;;;-1.50;99.90;;;;;;4993730;28;20413;-70
2023/12/02 00:04:43;;;;;;;1999.90;999.90;;;-1.50;99.90;;;;;;4984692;28;20473;-69
2023/12/02 00:07:10;;;;;;;1999.90;999.90;;;-1.50;99.90;;;;;;4992856;28;20022;-70
2023/12/02 00:09:36;;;;;;;1999.90;999.90;;;-1.50;99.90;;;;;;4985666;28;20283;-70
2023/12/02 00:12:03;;;;;;;1999.90;999.90;;;-1.50;99.90;;;;;;4984616;28;20045;-70
2023/12/02 00:14:29;;;;;;;;;;;-1.60;99.90;;;;;;4982146;28;20022;-70
2023/12/02 00:16:55;;;;;;;1999.90;999.90;;;-1.60;99.90;;;;;;4987271;28;20020;-70
2023/12/02 00:19:20;;;;;;;1999.90;999.90;;;-1.60;99.90;;;;;;5018157;28;20755;-70
2023/12/02 00:21:46;;;;;;;1999.90;999.90;;;-1.60;99.90;;;;;;4993056;28;20260;-70
2023/12/02 00:24:12;;;;;;;1999.90;999.90;;;-1.60;99.90;;;;;;4991658;28;20329;-70
2023/12/02 00:26:38;;;;;;;1999.90;999.90;;;-1.60;99.90;;;;;;4999193;28;20370;-70
2023/12/02 00:29:04;;;;;;;1999.90;999.90;;;-1.70;99.90;;;;;;4994247;28;20052;-70
2023/12/02 00:31:30;;;;;;;1999.90;999.90;;;-1.70;99.90;;;;;;4977187;28;20041;-70
2023/12/02 00:33:57;;;;;;;1999.90;999.90;;;-1.70;99.90;;;;;;5003388;28;20126;-70
2023/12/02 00:36:23;;;;;;;1999.90;999.90;;;-1.70;99.90;;;;;;4994673;28;20034;-70
2023/12/02 00:38:49;;;;;;;1999.90;999.90;;;-1.80;99.90;;;;;;4994328;28;20072;-70
2023/12/02 00:41:15;;;;;;;1999.90;999.90;;;-1.80;99.90;;;;;;4990491;28;20354;-67
2023/12/02 00:43:41;;;;;;;1999.90;999.90;;;-1.80;99.90;;;;;;5008472;28;20336;-70
2023/12/02 00:46:07;;;;;;;1999.90;999.90;;;-1.80;99.90;;;;;;4975572;28;20092;-70
2023/12/02 00:48:33;;;;;;;1999.90;999.90;;;-1.80;99.90;;;;;;4993448;28;20038;-70
2023/12/02 00:50:59;;;;;;;1999.90;999.90;;;-1.90;99.90;;;;;;5006093;28;20033;-70
2023/12/02 00:53:25;;;;;;;1999.90;999.90;;;-1.90;99.90;;;;;;4996394;28;20136;-70
2023/12/02 00:55:50;;;;;;;1999.90;999.90;;;-1.90;99.90;;;;;;5011064;28;20639;-70
2023/12/02 00:58:16;;;;;;;1999.90;999.90;;;-1.90;99.90;;;;;;5008773;28;20031;-70
2023/12/02 01:00:42;;;;;;;1999.90;999.90;;;-2.00;99.90;;;;;;4997798;28;20058;-70
2023/12/02 01:03:08;;;;;;;1999.90;999.90;;;-1.90;99.90;;;;;;4998675;28;20256;-70
2023/12/02 01:05:34;;;;;;;1999.90;999.90;;;-2.00;99.90;;;;;;4993494;28;20022;-68
2023/12/02 01:08:00;;;;;;;1999.90;999.90;;;-2.00;99.90;;;;;;5009844;28;20086;-70
2023/12/02 01:10:25;;;;;;;1999.90;999.90;;;-2.00;99.90;;;;;;4999413;28;20088;-70
2023/12/02 01:12:51;;;;;;;1999.90;999.90;;;-2.00;99.90;;;;;;4996854;28;20095;-70
2023/12/02 01:15:17;;;;;;;1999.90;999.90;;;-2.00;99.90;;;;;;4988199;28;20118;-70
2023/12/02 01:17:43;;;;;;;1999.90;999.90;;;-2.00;99.90;;;;;;4988389;28;20284;-70
2023/12/02 01:20:10;;;;;;;1999.90;999.90;;;-2.00;99.90;;;;;;4992784;28;20091;-70
2023/12/02 01:22:35;;;;;;;1999.90;999.90;;;-2.10;99.90;;;;;;4983353;28;20031;-70
2023/12/02 01:25:01;;;;;;;1999.90;999.90;;;-2.10;99.90;;;;;;4992806;28;20046;-68
2023/12/02 01:27:27;;;;;;;1999.90;999.90;;;-2.10;99.90;;;;;;4988372;28;20034;-70
2023/12/02 01:29:53;;;;;;;1999.90;999.90;;;-2.10;99.90;;;;;;4994367;28;20442;-70
2023/12/02 01:32:19;;;;;;;1999.90;999.90;;;-2.10;99.90;;;;;;5031904;28;20031;-70
2023/12/02 01:34:45;;;;;;;1999.90;999.90;;;-2.10;99.90;;;;;;4988698;28;20338;-70
2023/12/02 01:37:11;;;;;;;;;;;-2.20;99.90;;;;;;4984091;28;20303;-70
2023/12/02 01:39:37;;;;;;;1999.90;999.90;;;-2.20;99.90;;;;;;4993364;28;19914;-68
2023/12/02 01:42:04;;;;;;;1999.90;999.90;;;-2.30;99.90;;;;;;4989429;28;20042;-70
2023/12/02 01:44:31;;;;;;;1999.90;999.90;;;-2.30;99.90;;;;;;5001279;28;20020;-70
2023/12/02 01:46:56;;;;;;;1999.90;999.90;;;-2.40;99.90;;;;;;4991508;28;20034;-70
2023/12/02 01:49:23;;;;;;;1999.90;999.90;;;-2.30;99.90;;;;;;4991073;28;20122;-70
2023/12/02 01:51:49;;;;;;;1999.90;999.90;;;-2.20;99.90;;;;;;4977037;28;20026;-70
2023/12/02 01:54:15;;;;;;;1999.90;999.90;;;-2.10;99.90;;;;;;4986486;28;20027;-70
2023/12/02 01:56:41;;;;;;;1999.90;999.90;;;-2.10;99.90;;;;;;4983849;28;20038;-70
2023/12/02 01:59:07;;;;;;;1999.90;999.90;;;-2.20;99.90;;;;;;5014939;28;20370;-70
2023/12/02 02:01:32;;;;;;;1999.90;999.90;;;-2.20;99.90;;;;;;4986935;28;20053;-68
2023/12/02 02:03:59;;;;;;;1999.90;999.90;;;-2.30;99.90;;;;;;4990435;28;20019;-68
2023/12/02 02:06:25;;;;;;;1999.90;999.90;;;-2.40;99.90;;;;;;4997027;28;20030;-70
2023/12/02 02:08:51;;;;;;;1999.90;999.90;;;-2.40;99.90;;;;;;4991112;28;20028;-70
2023/12/02 02:11:16;;;;;;;1999.90;999.90;;;-2.50;99.90;;;;;;4992349;28;20038;-70
2023/12/02 02:13:42;;;;;;;1999.90;999.90;;;-2.60;99.90;;;;;;4991533;28;20054;-70
2023/12/02 02:16:08;;;;;;;1999.90;999.90;;;-2.60;99.90;;;;;;4993058;28;20027;-70
2023/12/02 02:18:36;;;;;;;1999.90;999.90;;;-2.70;99.90;;;;;;4993849;28;20109;-70
2023/12/02 02:21:02;;;;;;;1999.90;999.90;;;-2.70;99.90;;;;;;4986069;28;20314;-70
2023/12/02 02:23:29;;;;;;;1999.90;999.90;;;-2.70;99.90;;;;;;5002778;28;20033;-70
2023/12/02 02:25:55;;;;;;;1999.90;999.90;;;-2.60;99.90;;;;;;5014352;28;20054;-69
2023/12/02 02:28:25;;;;;;;1999.90;999.90;;;-2.50;99.90;;;;;;4986243;28;20111;-70
2023/12/02 02:30:51;;;;;;;1999.90;999.90;;;-2.50;99.90;;;;;;4999996;28;20090;-70
2023/12/02 02:33:18;;;;;;;1999.90;999.90;;;-2.50;99.90;;;;;;5001824;28;20034;-70
2023/12/02 02:35:44;;;;;;;1999.90;999.90;;;-2.70;99.90;;;;;;4998426;28;20026;-70
2023/12/02 02:38:13;;;;;;;1999.90;999.90;;;-2.70;99.90;;;;;;4993841;28;20033;-70
2023/12/02 02:40:39;;;;;;;1999.90;999.90;;;-2.70;99.90;;;;;;5002673;28;20031;-70
2023/12/02 02:43:05;;;;;;;1999.90;999.90;;;-2.70;99.90;;;;;;4996296;28;20030;-70
2023/12/02 02:45:31;;;;;;;1999.90;999.90;;;-2.70;99.90;;;;;;4986540;28;20075;-70
2023/12/02 02:47:57;;;;;;;1999.90;999.90;;;-2.60;99.90;;;;;;4987022;28;20030;-70
2023/12/02 02:50:23;;;;;;;1999.90;999.90;;;-2.60;99.90;;;;;;4982315;28;20111;-69
2023/12/02 02:52:49;;;;;;;1999.90;999.90;;;-2.70;99.90;;;;;;4993871;28;20061;-70
2023/12/02 02:55:15;;;;;;;1999.90;999.90;;;-2.70;99.90;;;;;;5008304;28;20026;-70
2023/12/02 02:57:40;;;;;;;1999.90;999.90;;;-2.70;99.90;;;;;;4992694;28;20026;-70
2023/12/02 03:00:09;;;;;;;1999.90;999.90;;;-2.60;99.90;;;;;;4991829;28;20030;-70
2023/12/02 03:02:37;;;;;;;1999.90;999.90;;;-2.60;99.90;;;;;;4971418;28;20030;-70
2023/12/02 03:05:07;;;;;;;1999.90;999.90;;;-2.60;99.90;;;;;;5000271;28;20030;-70
2023/12/02 03:07:33;;;;;;;1999.90;999.90;;;-2.50;99.90;;;;;;4986286;28;20083;-70
2023/12/02 03:09:59;;;;;;;1999.90;999.90;;;-2.60;99.90;;;;;;4992203;28;20081;-70
2023/12/02 03:12:26;;;;;;;1999.90;999.90;;;-2.60;99.90;;;;;;4992263;28;20061;-70
2023/12/02 03:14:53;;;;;;;1999.90;999.90;;;-2.60;99.90;;;;;;4997186;28;20535;-68
2023/12/02 03:17:19;;;;;;;1999.90;999.90;;;-2.60;99.90;;;;;;4990673;28;20137;-70
2023/12/02 03:19:45;;;;;;;1999.90;999.90;;;-2.70;99.90;;;;;;4992197;28;20109;-70
2023/12/02 03:22:11;;;;;;;;;;;-2.80;99.90;;;;;;5003710;28;20038;-70
2023/12/02 03:24:37;;;;;;;1999.90;999.90;;;-2.80;99.90;;;;;;4992268;28;19913;-70
2023/12/02 03:27:03;;;;;;;1999.90;999.90;;;-2.80;99.90;;;;;;4990411;28;20046;-70
2023/12/02 03:29:29;;;;;;;1999.90;999.90;;;-2.80;99.90;;;;;;4999800;28;20417;-70
2023/12/02 03:31:54;;;;;;;1999.90;999.90;;;-2.80;99.90;;;;;;4999571;28;20349;-70
2023/12/02 03:34:20;;;;;;;1999.90;999.90;;;-2.90;99.90;;;;;;5006222;28;20030;-70
2023/12/02 03:36:46;;;;;;;1999.90;999.90;;;-2.90;99.90;;;;;;5009680;28;20042;-70
2023/12/02 03:39:12;;;;;;;1999.90;999.90;;;-2.90;99.90;;;;;;5002012;28;20325;-70
2023/12/02 03:41:40;;;;;;;1999.90;999.90;;;-2.90;99.90;;;;;;4989375;28;20045;-70
2023/12/02 03:44:06;;;;;;;1999.90;999.90;;;-2.90;99.90;;;;;;4991220;28;20029;-70
2023/12/02 03:46:31;;;;;;;1999.90;999.90;;;-3.00;99.90;;;;;;5001116;28;20432;-70
2023/12/02 03:48:57;;;;;;;1999.90;999.90;;;-3.00;99.90;;;;;;4992177;28;20330;-70
2023/12/02 03:51:23;;;;;;;1999.90;999.90;;;-3.10;99.90;;;;;;5043702;28;20041;-70
2023/12/02 03:53:49;;;;;;;1999.90;999.90;;;-3.10;99.90;;;;;;4989067;28;20030;-70
2023/12/02 03:56:14;;;;;;;1999.90;999.90;;;-3.10;99.90;;;;;;4994195;28;20260;-71
2023/12/02 03:58:40;;;;;;;1999.90;999.90;;;-3.10;99.90;;;;;;5027634;28;20034;-70
2023/12/02 04:01:06;;;;;;;1999.90;999.90;;;-3.20;99.90;;;;;;4993755;28;20324;-70
2023/12/02 04:03:33;;;;;;;1999.90;999.90;;;-3.10;99.90;;;;;;4994795;28;20109;-70
2023/12/02 04:05:59;;;;;;;1999.90;999.90;;;-3.00;99.90;;;;;;5004170;28;20035;-67
2023/12/02 04:08:24;;;;;;;1999.90;999.90;;;-3.00;99.90;;;;;;4990639;28;20038;-70
2023/12/02 04:10:50;;;;;;;1999.90;999.90;;;-3.00;99.90;;;;;;4986437;28;20054;-70
2023/12/02 04:13:16;;;;;;;1999.90;999.90;;;-3.10;99.90;;;;;;4983435;28;20037;-70
2023/12/02 04:15:42;;;;;;;1999.90;999.90;;;-3.20;99.90;;;;;;4991884;28;20041;-70
2023/12/02 04:18:07;;;;;;;1999.90;999.90;;;-3.20;99.90;;;;;;4996627;28;20041;-70
2023/12/02 04:20:33;;;;;;;1999.90;999.90;;;-3.20;99.90;;;;;;4989463;28;20023;-70
2023/12/02 04:22:59;;;;;;;1999.90;999.90;;;-3.20;99.90;;;;;;4996345;28;20140;-70
2023/12/02 04:25:25;;;;;;;1999.90;999.90;;;-3.20;99.90;;;;;;4986078;28;20313;-70
2023/12/02 04:27:51;;;;;;;1999.90;999.90;;;-3.00;99.90;;;;;;5000253;28;20555;-70
2023/12/02 04:30:16;;;;;;;1999.90;999.90;;;-3.00;99.90;;;;;;4986281;28;20129;-70
2023/12/02 04:32:42;;;;;;;1999.90;999.90;;;-3.00;99.90;;;;;;4986767;28;20110;-70
2023/12/02 04:35:08;;;;;;;1999.90;999.90;;;-3.00;99.90;;;;;;4975536;28;20062;-70
2023/12/02 04:37:35;;;;;;;1999.90;999.90;;;-3.00;99.90;;;;;;4992156;28;20363;-70
2023/12/02 04:40:01;;;;;;;1999.90;999.90;;;-2.90;99.90;;;;;;4980447;28;20043;-70
2023/12/02 04:42:27;;;;;;;1999.90;999.90;;;-2.90;99.90;;;;;;4991433;28;20064;-70
2023/12/02 04:44:52;;;;;;;1999.90;999.90;;;-2.90;99.90;;;;;;4990793;28;20046;-70
2023/12/02 04:47:19;;;;;;;1999.90;999.90;;;-2.80;99.90;;;;;;4993828;28;20046;-70
2023/12/02 04:49:45;;;;;;;1999.90;999.90;;;-2.80;99.90;;;;;;5007388;28;20328;-69
2023/12/02 04:52:11;;;;;;;1999.90;999.90;;;-2.80;99.90;;;;;;5022404;28;20050;-70
2023/12/02 04:54:36;;;;;;;1999.90;999.90;;;-2.70;99.90;;;;;;4985503;28;20117;-70
2023/12/02 04:57:02;;;;;;;1999.90;999.90;;;-2.80;99.90;;;;;;4986968;28;20038;-70
2023/12/02 04:59:28;;;;;;;1999.90;999.90;;;-2.70;99.90;;;;;;4995898;28;20030;-70
2023/12/02 05:01:54;;;;;;;1999.90;999.90;;;-2.70;99.90;;;;;;4999981;28;20030;-70
2023/12/02 05:04:20;;;;;;;1999.90;999.90;;;-2.80;99.90;;;;;;4986907;28;20035;-70
2023/12/02 05:06:46;;;;;;;1999.90;999.90;;;-2.80;99.90;;;;;;4992009;28;20376;-70
2023/12/02 05:09:12;;;;;;;1999.90;999.90;;;-2.80;99.90;;;;;;4976751;28;20047;-70
2023/12/02 05:11:37;;;;;;;1999.90;999.90;;;-2.80;99.90;;;;;;4986787;28;20375;-70
2023/12/02 05:14:03;;;;;;;1999.90;999.90;;;-2.80;99.90;;;;;;5014067;28;20079;-70
2023/12/02 05:16:29;;;;;;;1999.90;999.90;;;-2.90;99.90;;;;;;4992281;28;20037;-69
2023/12/02 05:18:55;;;;;;;1999.90;999.90;;;-2.80;99.90;;;;;;4993476;28;20121;-70
2023/12/02 05:21:20;;;;;;;1999.90;999.90;;;-2.90;99.90;;;;;;5000496;28;20028;-70
2023/12/02 05:23:46;;;;;;;1999.90;999.90;;;-2.80;99.90;;;;;;4994932;28;20045;-70
2023/12/02 05:26:12;;;;;;;1999.90;999.90;;;-2.80;99.90;;;;;;4976569;28;20054;-70
2023/12/02 05:28:38;;;;;;;1999.90;999.90;;;-2.90;99.90;;;;;;4993090;28;20034;-70
2023/12/02 05:31:05;;;;;;;1999.90;999.90;;;-2.80;99.90;;;;;;5018848;28;20423;-70
2023/12/02 05:33:30;;;;;;;1999.90;999.90;;;-2.80;99.90;;;;;;5006175;28;20106;-70
2023/12/02 05:35:56;;;;;;;1999.90;999.90;;;-2.80;99.90;;;;;;4993548;28;20126;-70
2023/12/02 05:38:22;;;;;;;1999.90;999.90;;;-2.60;99.90;;;;;;4992997;28;20034;-70
2023/12/02 05:40:47;;;;;;;1999.90;999.90;;;-2.60;99.90;;;;;;4998840;28;20417;-70
2023/12/02 05:43:13;;;;;;;1999.90;999.90;;;-2.60;99.90;;;;;;4992114;28;20053;-69
2023/12/02 05:45:39;;;;;;;1999.90;999.90;;;-2.60;99.90;;;;;;4990087;28;20046;-70
2023/12/02 05:48:05;;;;;;;1999.90;999.90;;;-2.60;99.90;;;;;;4976331;28;20046;-70
2023/12/02 05:50:31;;;;;;;1999.90;999.90;;;-2.60;99.90;;;;;;4983761;28;20276;-70
2023/12/02 05:52:58;;;;;;;1999.90;999.90;;;-2.50;99.90;;;;;;4982734;28;20425;-69
2023/12/02 05:55:25;;;;;;;;;;;-2.60;99.90;;;;;;5002421;28;20421;-70
2023/12/02 05:57:52;;;;;;;;;;;-2.50;99.90;;;;;;4983015;28;19914;-70
2023/12/02 06:00:18;;;;;;;1999.90;999.90;;;-2.50;99.90;;;;;;4998678;28;19914;-70
2023/12/02 06:02:43;;;;;;;1999.90;999.90;;;-2.40;99.90;;;;;;4995620;28;20031;-68
2023/12/02 06:05:10;;;;;;;1999.90;999.90;;;-2.50;99.90;;;;;;5002073;28;20029;-70
2023/12/02 06:07:36;;;;;;;1999.90;999.90;;;-2.60;99.90;;;;;;4989239;28;20030;-70
2023/12/02 06:10:01;;;;;;;1999.90;999.90;;;-2.70;99.90;;;;;;4996134;28;20038;-70
2023/12/02 06:12:28;;;;;;;1999.90;999.90;;;-2.70;99.90;;;;;;4980180;28;20026;-70
2023/12/02 06:14:54;;;;;;;1999.90;999.90;;;-2.80;99.90;;;;;;5009534;28;20366;-70
2023/12/02 06:17:20;;;;;;;1999.90;999.90;;;-2.80;99.90;;;;;;4992442;28;20409;-70
2023/12/02 06:19:46;;;;;;;1999.90;999.90;;;-2.90;99.90;;;;;;4996933;28;20264;-69
2023/12/02 06:22:11;;;;;;;1999.90;999.90;;;-2.90;99.90;;;;;;4991294;28;20079;-70
2023/12/02 06:24:37;;;;;;;1999.90;999.90;;;-2.90;99.90;;;;;;4986614;28;20447;-70
2023/12/02 06:27:03;;;;;;;1999.90;999.90;;;-3.00;99.90;;;;;;4987628;28;20050;-70
2023/12/02 06:29:29;;;;;;;1999.90;999.90;;;-3.00;99.90;;;;;;4997436;28;20480;-69
2023/12/02 06:31:54;;;;;;;1999.90;999.90;;;-3.00;99.90;;;;;;4998357;28;20042;-68
2023/12/02 06:34:20;;;;;;;1999.90;999.90;;;-3.10;99.90;;;;;;4999600;28;20429;-70
2023/12/02 06:36:46;;;;;;;1999.90;999.90;;;-3.10;99.90;;;;;;4990955;28;20034;-70
2023/12/02 06:39:12;;;;;;;1999.90;999.90;;;-3.10;99.90;;;;;;4990333;28;20030;-70
2023/12/02 06:41:41;;;;;;;1999.90;999.90;;;-3.10;99.90;;;;;;5004316;28;20045;-70
2023/12/02 06:44:10;;;;;;;1999.90;999.90;;;-3.10;99.90;;;;;;4996572;28;20035;-70
2023/12/02 06:46:36;;;;;;;1999.90;999.90;;;-3.10;99.90;;;;;;4970831;28;20504;-70
2023/12/02 06:49:02;;;;;;;1999.90;999.90;;;-3.20;99.90;;;;;;4972761;28;20042;-70
2023/12/02 06:51:30;;;;;;;1999.90;999.90;;;-3.20;99.90;;;;;;4991474;28;20340;-68
2023/12/02 06:53:57;;;;;;;1999.90;999.90;;;-3.20;99.90;;;;;;4993073;28;20076;-70
2023/12/02 06:56:23;;;;;;;;;;;-3.20;99.90;;;;;;5001308;28;20037;-68
2023/12/02 06:58:50;;;;;;;1999.90;999.90;;;-3.20;99.90;;;;;;4996817;28;19925;-70
2023/12/02 07:01:30;;;;;;;1999.90;999.90;;;-3.20;99.90;;;;;;4993085;28;20421;-70
2023/12/02 07:03:58;;;;;;;1999.90;999.90;;;-3.20;99.90;;;;;;4986070;28;20038;-68
2023/12/02 07:06:24;;;;;;;1999.90;999.90;;;-3.20;99.90;;;;;;4999516;28;20097;-70
2023/12/02 07:08:51;;;;;;;1999.90;999.90;;;-3.20;99.90;;;;;;4985353;28;20022;-70
2023/12/02 07:11:17;;;;;;;1999.90;999.90;;;-3.20;99.90;;;;;;4997771;28;20055;-68
2023/12/02 07:13:44;;;;;;;1999.90;999.90;;;-3.20;99.90;;;;;;4996387;28;20071;-70
2023/12/02 07:16:11;;;;;;;1999.90;999.90;;;-3.20;99.90;;;;;;4992675;28;20444;-70
2023/12/02 07:18:37;;;;;;;1999.90;999.90;;;-3.20;99.90;;;;;;5002898;28;20031;-69
2023/12/02 07:21:03;;;;;;;1999.90;999.90;;;-3.30;99.90;;;;;;4970158;28;20022;-68
2023/12/02 07:23:28;;;;;;;1999.90;999.90;;;-3.30;99.90;;;;;;4991793;28;20038;-70
2023/12/02 07:25:55;;;;;;;1999.90;999.90;;;-3.30;99.90;;;;;;4987682;28;20054;-70
2023/12/02 07:28:21;;;;;;;1999.90;999.90;;;-3.30;99.90;;;;;;4980889;28;20026;-70
2023/12/02 07:30:48;;;;;;;1999.90;999.90;;;-3.20;99.90;;;;;;4990860;28;20314;-70
2023/12/02 07:33:15;;;;;;;1999.90;999.90;;;-3.20;99.90;;;;;;4990755;28;20088;-70
2023/12/02 07:35:41;;;;;;;1999.90;999.90;;;-3.20;99.90;;;;;;4991471;28;20026;-69
2023/12/02 07:38:07;;;;;;;1999.90;999.90;;;-3.10;99.90;;;;;;4989274;28;20084;-69
2023/12/02 07:40:32;;;;;;;1999.90;999.90;;;-3.10;99.90;;;;;;4990248;28;20072;-69
2023/12/02 07:42:59;;;;;;;1999.90;999.90;;;-3.10;99.90;;;;;;4984986;28;20031;-69
2023/12/02 07:45:25;;;;;;;;;;;-3.20;99.90;;;;;;4987336;28;20290;-69
2023/12/02 07:47:51;;;;;;;1999.90;999.90;;;-3.20;99.90;;;;;;4991451;28;19940;-70
2023/12/02 07:50:16;;;;;;;1999.90;999.90;;;-3.10;99.90;;;;;;4992542;28;20238;-69
2023/12/02 07:52:43;;;;;;;1999.90;999.90;;;-3.10;99.90;;;;;;4994378;28;20034;-69
2023/12/02 07:55:08;;;;;;;1999.90;999.90;;;-3.10;99.90;;;;;;4991352;28;20327;-70
2023/12/02 07:57:34;;;;;;;1999.90;999.90;;;-3.00;99.90;;;;;;4996980;28;20034;-69
2023/12/02 08:00:00;;;;;;;1999.90;999.90;;;-3.00;99.90;;;;;;4998497;28;20256;-70
2023/12/02 08:02:26;;;;;;;1999.90;999.90;;;-2.90;99.90;;;;;;4995809;28;20042;-69
2023/12/02 08:04:52;;;;;;;1999.90;999.90;;;-2.90;99.90;;;;;;5000110;28;20030;-70
2023/12/02 08:07:18;;;;;;;1999.90;999.90;;;-2.80;99.90;;;;;;4997158;28;20026;-70
2023/12/02 08:09:44;;;;;;;1999.90;999.90;;;-2.80;99.90;;;;;;5002966;28;20276;-70
2023/12/02 08:12:10;;;;;;;1999.90;999.90;;;-2.70;99.90;;;;;;4992002;28;20355;-68
2023/12/02 08:14:36;;;;;;;1999.90;999.90;;;-2.60;99.90;;;;;;5014500;28;20406;-70
2023/12/02 08:17:02;;;;;;;1999.90;999.90;;;-2.60;99.90;;;;;;5044792;28;20035;-69
2023/12/02 08:19:29;;;;;;;1999.90;999.90;;;-2.50;99.90;;;;;;5021891;28;20027;-70
2023/12/02 08:21:55;;;;;;;1999.90;999.90;;;-2.40;99.90;;;;;;5008591;28;20035;-70
2023/12/02 08:24:20;;;;;;;1999.90;999.90;;;-2.40;99.90;;;;;;4993984;28;20019;-69
2023/12/02 08:26:49;;;;;;;1999.90;999.90;;;-2.40;99.90;;;;;;4981930;28;20341;-70
2023/12/02 08:29:15;;;;;;;1999.90;999.90;;;-2.30;99.90;;;;;;4986844;28;20314;-70
2023/12/02 08:31:41;;;;;;;1999.90;999.90;;;-2.20;99.90;;;;;;4990352;28;20026;-69
2023/12/02 08:34:07;;;;;;;1999.90;999.90;;;-2.20;99.90;;;;;;4990209;28;20023;-70
2023/12/02 08:36:32;;;;;;;1999.90;999.90;;;-2.10;99.90;;;;;;4989877;28;20027;-70
2023/12/02 08:38:58;;;;;;;1999.90;999.90;;;-2.10;99.90;;;;;;4991115;28;20022;-69
2023/12/02 08:41:24;;;;;;;1999.90;999.90;;;-2.10;99.90;;;;;;4977172;28;20023;-69
2023/12/02 08:43:50;;;;;;;1999.90;999.90;;;-2.00;99.90;;;;;;4999944;28;20037;-70
2023/12/02 08:46:19;;;;;;;1999.90;999.90;;;-2.00;99.90;;;;;;4985128;28;20037;-70
2023/12/02 08:48:46;;;;;;;1999.90;999.90;;;-1.90;99.90;;;;;;4995934;28;20038;-69
2023/12/02 08:51:12;;;;;;;1999.90;999.90;;;-1.90;99.90;;;;;;4992461;28;20026;-70
2023/12/02 08:53:38;;;;;;;1999.90;999.90;;;-1.80;99.90;;;;;;4994200;28;20053;-69
2023/12/02 08:56:04;;;;;;;1999.90;999.90;;;-1.80;99.90;;;;;;4994012;28;20455;-70
2023/12/02 08:58:30;;;;;;;;;;;-1.70;99.90;;;;;;4996384;28;20089;-69
2023/12/02 09:00:56;;;;;;;1999.90;999.90;;;-1.70;99.90;;;;;;5017869;28;20670;-69
2023/12/02 09:03:22;;;;;;;1999.90;999.90;;;-1.70;99.90;;;;;;4993918;28;20061;-69
2023/12/02 09:05:54;;;;;;;1999.90;999.90;;;-1.60;99.90;;;;;;4992443;28;20349;-70
2023/12/02 09:08:20;;;;;;;1999.90;999.90;;;-1.60;99.90;;;;;;4991978;28;20088;-70
2023/12/02 09:10:46;;;;;;;1999.90;999.90;;;-1.60;99.90;;;;;;4981698;28;20423;-70
2023/12/02 09:13:33;;;;;;;1999.90;999.90;;;-1.40;99.90;;;;;;4991973;28;20113;-70
2023/12/02 09:16:02;;;;;;;1999.90;999.90;;;-1.40;99.90;;;;;;4993161;28;20027;-70
2023/12/02 09:18:36;;;;;;;1999.90;999.90;;;-1.30;99.90;;;;;;4987400;28;20038;-70
2023/12/02 09:21:03;;;;;;;1999.90;999.90;;;-1.30;99.90;;;;;;4989660;28;20050;-69
2023/12/02 09:23:29;;;;;;;;;;;-1.30;99.90;;;;;;4999178;28;20409;-69
2023/12/02 09:26:01;;;;;;;1999.90;999.90;;;-1.10;99.90;;;;;;5000105;28;20003;-69
2023/12/02 09:28:29;;;;;;;1999.90;999.90;;;-1.10;99.90;;;;;;5062501;28;20440;-70
2023/12/02 09:31:00;;;;;;;1999.90;999.90;;;-1.10;99.90;;;;;;5015341;28;20071;-70
2023/12/02 09:33:27;;;;;;;1999.90;999.90;;;-1.00;99.90;;;;;;5001979;28;20041;-70
2023/12/02 09:35:58;;;;;;;1999.90;999.90;;;-1.00;99.90;;;;;;4994805;28;20029;-70
2023/12/02 09:38:24;;;;;;;1999.90;999.90;;;-0.90;99.90;;;;;;4993112;28;20328;-69
2023/12/02 09:41:18;;;;;;;1999.90;999.90;;;-0.90;99.90;;;;;;5004165;28;20052;-70
2023/12/02 09:44:09;;;;;;;1999.90;999.90;;;-0.80;99.90;;;;;;5024519;28;20264;-70
2023/12/02 09:47:01;;;;;;;1999.90;999.90;;;-0.70;99.90;;;;;;5016525;28;20128;-70
2023/12/02 09:49:42;;;;;;;1999.90;999.90;;;-0.70;99.90;;;;;;4975671;28;20031;-70
2023/12/02 09:52:27;;;;;;;1999.90;999.90;;;-0.60;99.90;;;;;;5010004;28;20022;-70
2023/12/02 09:55:16;;;;;;;1999.90;999.90;;;-0.60;99.90;;;;;;4990819;28;20037;-70
2023/12/02 09:58:04;;;;;;;1999.90;999.90;;;-0.50;99.90;;;;;;5003732;28;20035;-69
2023/12/02 10:00:49;;;;;;;1999.90;999.90;;;-0.50;99.90;;;;;;4995328;28;20022;-70
2023/12/02 10:03:31;;;;;;;1999.90;999.90;;;-0.40;99.90;;;;;;5014031;28;20026;-69
2023/12/02 10:06:37;;;;;;;1999.90;999.90;;;-0.40;99.90;;;;;;5028788;28;20127;-69
2023/12/02 10:09:24;;;;;;;1999.90;999.90;;;-0.40;99.90;;;;;;5016591;28;20030;-69
2023/12/02 10:12:11;;;;;;;1999.90;999.90;;;-0.30;99.90;;;;;;5005479;28;20020;-70
2023/12/02 10:14:41;;;;;;;1999.90;999.90;;;-0.20;99.90;;;;;;5010609;28;20500;-69
2023/12/02 10:17:10;;;;;;;1999.90;999.90;;;-0.20;99.90;;;;;;4994196;28;20026;-69
2023/12/02 10:19:41;;;;;;;1999.90;999.90;;;-0.10;99.90;;;;;;5006259;28;20030;-69
2023/12/02 10:22:10;;;;;;;1999.90;999.90;;;-0.10;99.90;;;;;;5001948;28;20026;-69
2023/12/02 10:24:43;;;;;;;1999.90;999.90;;;0.00;99.90;;;;;;5011531;28;20031;-69
2023/12/02 10:27:14;;;;;;;1999.90;999.90;;;0.00;99.90;;;;;;5006545;28;20344;-69
2023/12/02 10:30:03;;;;;;;1999.90;999.90;;;0.00;99.90;;;;;;4999350;28;20075;-69
2023/12/02 10:32:54;;;;;;;1999.90;999.90;;;0.00;99.90;;;;;;4993297;28;20022;-70
2023/12/02 10:35:42;;;;;;;1999.90;999.90;;;0.10;99.90;;;;;;4997331;28;20035;-70
2023/12/02 10:38:25;;;;;;;1999.90;999.90;;;0.10;99.90;;;;;;5011065;28;20028;-70
2023/12/02 10:41:17;;;;;;;1999.90;999.90;;;0.10;99.90;;;;;;4994483;28;20110;-69
2023/12/02 10:43:47;;;;;;;1999.90;999.90;;;0.10;99.90;;;;;;5024997;28;20024;-70
2023/12/02 10:46:13;;;;;;;1999.90;999.90;;;0.10;99.90;;;;;;5012847;28;20148;-70
2023/12/02 10:48:40;;;;;;;1999.90;999.90;;;0.10;99.90;;;;;;5034914;28;20071;-70
2023/12/02 10:51:08;;;;;;;1999.90;999.90;;;0.10;99.90;;;;;;4985879;28;20125;-69
2023/12/02 10:53:36;;;;;;;1999.90;999.90;;;0.10;99.90;;;;;;4999008;28;20030;-69
2023/12/02 10:56:10;;;;;;;1999.90;999.90;;;0.10;99.90;;;;;;4992288;28;20084;-70
2023/12/02 10:58:38;;;;;;;1999.90;999.90;;;0.20;99.90;;;;;;4994400;28;20362;-70
2023/12/02 11:01:10;;;;;;;1999.90;999.90;;;0.30;99.90;;;;;;5004921;28;20026;-69
2023/12/02 11:03:48;;;;;;;1999.90;999.90;;;0.40;99.90;;;;;;5007477;28;20066;-70
2023/12/02 11:06:39;;;;;;;1999.90;999.90;;;0.60;99.90;;;;;;4992748;28;20057;-70
2023/12/02 11:09:28;;;;;;;1999.90;999.90;;;0.70;99.90;;;;;;4991930;28;20027;-69
2023/12/02 11:12:05;;;;;;;1999.90;999.90;;;0.70;99.90;;;;;;5041594;28;20024;-69
2023/12/02 11:14:43;;;;;;;1999.90;999.90;;;0.80;99.90;;;;;;5034535;28;20028;-69
2023/12/02 11:17:15;;;;;;;1999.90;999.90;;;0.80;99.90;;;;;;5018258;28;20059;-69
2023/12/02 11:19:55;;;;;;;1999.90;999.90;;;0.90;99.90;;;;;;4992051;28;20033;-69
2023/12/02 11:22:31;;;;;;;1999.90;999.90;;;1.00;99.90;;;;;;5006509;28;20022;-69
2023/12/02 11:25:33;;;;;;;1999.90;999.90;;;1.00;99.90;;;;;;5007646;28;20022;-69
2023/12/02 11:28:25;;;;;;;1999.90;999.90;;;1.20;99.90;;;;;;4996792;28;20038;-69
2023/12/02 11:31:11;;;;;;;1999.90;999.90;;;1.40;99.90;;;;;;4974270;28;20091;-69
2023/12/02 11:34:15;;;;;;;1999.90;999.90;;;1.50;99.90;;;;;;4985235;28;20026;-69
2023/12/02 11:36:56;;;;;;;1999.90;999.90;;;1.60;99.90;;;;;;4982260;28;20027;-70
2023/12/02 11:39:37;;;;;;;1999.90;999.90;;;1.60;99.90;;;;;;4990404;28;20018;-69
2023/12/02 11:42:18;;;;;;;1999.90;999.90;;;1.60;99.90;;;;;;4982340;28;20231;-69
2023/12/02 11:44:58;;;;;;;1999.90;999.90;;;1.70;99.90;;;;;;4986384;28;20520;-70
2023/12/02 11:48:06;;;;;;;1999.90;999.90;;;1.80;99.90;;;;;;4977923;28;20019;-70
2023/12/02 11:50:44;;;;;;;1999.90;999.90;;;1.90;99.90;;;;;;4987675;28;20038;-70
2023/12/02 11:53:10;;;;;;;1999.90;999.90;;;2.00;99.90;;;;;;4979628;28;20045;-70
2023/12/02 11:55:59;;;;;;;1999.90;999.90;;;1.90;99.90;;;;;;5004067;28;20720;-70
2023/12/02 11:59:00;;;;;;;1999.90;999.90;;;1.80;99.90;;;;;;4987961;28;20038;-70
2023/12/02 12:01:47;;;;;;;1999.90;999.90;;;1.80;99.90;;;;;;4989306;28;20030;-70
2023/12/02 12:04:41;;;;;;;1999.90;999.90;;;1.90;99.90;;;;;;4996004;28;20022;-70
2023/12/02 12:07:29;;;;;;;1999.90;999.90;;;1.90;99.90;;;;;;4987940;28;20384;-70
2023/12/02 12:10:28;;;;;;;1999.90;999.90;;;1.90;99.90;;;;;;4987362;28;20034;-69
2023/12/02 12:12:57;;;;;;;1999.90;999.90;;;1.90;99.90;;;;;;4989452;28;20045;-70
2023/12/02 12:15:23;;;;;;;1999.90;999.90;;;1.80;99.90;;;;;;4992118;28;20421;-70